Winthrop, MA (02152)

10:50 PM EDT on July 02, 2015 (GMT -0400)
Winthrop Beach | | Change Station
CLOSE
Current Station
Personal Weather Station
Location: Winthrop, MA
Elevation: 15 ft
Nearby Weather Stations

Elev 15 ft 42.38 °N, 70.97 °W | Updated 8 minutes ago

Overcast
Overcast
72.4 °F
Feels Like 75 °F
N
0.0
Wind Variable Wind from West
Gusts 0.0 mph

Today
High -- | Low -- °F
--% Chance of Precip.
Yesterday
High -- | Low -- °F
Precip. -- in
5:11 AM 8:24 PM
Full, 99% visible
Pressure 29.88 in
Visibility 10.0 miles
Clouds Scattered Clouds 20000 ft
Overcast 25000 ft
Heat Index 75 °F
Dew Point 60 °F
Humidity 66%
Rainfall 0.00 in
Snow Depth Not available.
UV 0.0 out of 12
Pollen 5.90 out of 12
Air Quality Not available.
Flu Activity Not available.
METAR KBOS 030154Z 29003KT 10SM SCT200 OVC250 23/13 A2988 RMK AO2 SLP116 T02330128

More Conditions Fewer Conditions

Pressure 29.88 in
Visibility 10.0 miles
Clouds Scattered Clouds 20000 ft
Overcast 25000 ft
Heat Index 75 °F
Dew Point 60 °F
Humidity 66%
Rainfall 0.00 in
Snow Depth Not available.
UV 0.0 out of 12
Pollen 5.90 out of 12
Air Quality Not available.
Flu Activity Not available.
METAR KBOS 030154Z 29003KT 10SM SCT200 OVC250 23/13 A2988 RMK AO2 SLP116 T02330128

More Conditions Fewer Conditions

10-Day Weather Forecast

×

Almanac

Astronomy

Jul. 02, 2015 Rise Set
Actual Time
Civil Twilight
Nautical Twilight
Astronomical Twilight
Moon
Length of Visible Light
Length of Day
Tomorrow will be .
, % of the Moon is Illuminated

Today's Extremes

State Highs State Lows

Community

WunderPhotos

Upload Photos

1,834,594 photos uploaded!

WunderBlogs® & News

Nearby

Air Quality

  Air Quality AQ Index Pollutant
Not available.

Snow Depth

Station Depth Elevation

Earthquake Activity

City Distance Mag. Time & Date
Minimum magnitude displayed is 2.5.

Coastal Water Temperatures

Place Temperature

Stations

Nearby Weather Stations

Station Location Temp. Windchill Dew Point Humidity Wind Precip. Elev Updated Type